sensor_id;sensor_type;location;lat;lon;timestamp;temperature;humidity
14008;DHT22;61651;45.508;12.232;2022-08-21T00:02:53;25.70;99.90
14008;DHT22;61651;45.508;12.232;2022-08-21T00:05:56;25.60;99.90
14008;DHT22;61651;45.508;12.232;2022-08-21T00:08:58;25.60;99.90
14008;DHT22;61651;45.508;12.232;2022-08-21T00:12:00;25.60;99.90
14008;DHT22;61651;45.508;12.232;2022-08-21T00:15:04;25.50;99.90
14008;DHT22;61651;45.508;12.232;2022-08-21T00:18:07;25.50;99.90
14008;DHT22;61651;45.508;12.232;2022-08-21T00:21:11;25.50;99.90
14008;DHT22;61651;45.508;12.232;2022-08-21T00:24:13;25.40;99.90
14008;DHT22;61651;45.508;12.232;2022-08-21T00:27:15;25.40;99.90
14008;DHT22;61651;45.508;12.232;2022-08-21T00:30:19;25.40;99.90
14008;DHT22;61651;45.508;12.232;2022-08-21T00:33:22;25.40;99.90
14008;DHT22;61651;45.508;12.232;2022-08-21T00:36:24;25.40;99.90
14008;DHT22;61651;45.508;12.232;2022-08-21T00:39:26;25.40;99.90
14008;DHT22;61651;45.508;12.232;2022-08-21T00:42:29;25.30;99.90
14008;DHT22;61651;45.508;12.232;2022-08-21T00:45:33;25.30;99.90
14008;DHT22;61651;45.508;12.232;2022-08-21T00:48:35;25.30;99.90
14008;DHT22;61651;45.508;12.232;2022-08-21T00:51:40;25.20;99.90
14008;DHT22;61651;45.508;12.232;2022-08-21T00:54:44;25.20;99.90
14008;DHT22;61651;45.508;12.232;2022-08-21T00:57:50;25.20;99.90
14008;DHT22;61651;45.508;12.232;2022-08-21T01:00:53;25.20;99.90
14008;DHT22;61651;45.508;12.232;2022-08-21T01:03:56;25.20;99.90
14008;DHT22;61651;45.508;12.232;2022-08-21T01:06:58;25.20;99.90
14008;DHT22;61651;45.508;12.232;2022-08-21T01:10:00;25.20;99.90
14008;DHT22;61651;45.508;12.232;2022-08-21T01:13:04;25.10;99.90
14008;DHT22;61651;45.508;12.232;2022-08-21T01:16:09;25.20;99.90
14008;DHT22;61651;45.508;12.232;2022-08-21T01:19:12;25.20;99.90
14008;DHT22;61651;45.508;12.232;2022-08-21T01:22:16;25.10;99.90
14008;DHT22;61651;45.508;12.232;2022-08-21T01:25:20;25.10;99.90
14008;DHT22;61651;45.508;12.232;2022-08-21T01:28:22;25.00;99.90
14008;DHT22;61651;45.508;12.232;2022-08-21T01:31:27;25.00;99.90
14008;DHT22;61651;45.508;12.232;2022-08-21T01:34:29;25.00;99.90
14008;DHT22;61651;45.508;12.232;2022-08-21T01:37:33;25.00;99.90
14008;DHT22;61651;45.508;12.232;2022-08-21T01:40:35;24.90;99.90
14008;DHT22;61651;45.508;12.232;2022-08-21T01:43:37;24.90;99.90
14008;DHT22;61651;45.508;12.232;2022-08-21T01:46:39;24.90;99.90
14008;DHT22;61651;45.508;12.232;2022-08-21T01:49:42;24.90;99.90
14008;DHT22;61651;45.508;12.232;2022-08-21T01:52:45;24.80;99.90
14008;DHT22;61651;45.508;12.232;2022-08-21T01:55:47;24.80;99.90
14008;DHT22;61651;45.508;12.232;2022-08-21T01:58:49;24.80;99.90
14008;DHT22;61651;45.508;12.232;2022-08-21T02:01:51;24.80;99.90
14008;DHT22;61651;45.508;12.232;2022-08-21T02:04:54;24.70;99.90
14008;DHT22;61651;45.508;12.232;2022-08-21T02:07:58;24.70;99.90
14008;DHT22;61651;45.508;12.232;2022-08-21T02:11:00;24.70;99.90
14008;DHT22;61651;45.508;12.232;2022-08-21T02:14:02;24.70;99.90
14008;DHT22;61651;45.508;12.232;2022-08-21T02:17:05;24.60;99.90
14008;DHT22;61651;45.508;12.232;2022-08-21T02:20:08;24.70;99.90
14008;DHT22;61651;45.508;12.232;2022-08-21T02:23:12;24.60;99.90
14008;DHT22;61651;45.508;12.232;2022-08-21T02:26:15;24.60;99.90
14008;DHT22;61651;45.508;12.232;2022-08-21T02:29:17;24.60;99.90
14008;DHT22;61651;45.508;12.232;2022-08-21T02:32:19;24.60;99.90
14008;DHT22;61651;45.508;12.232;2022-08-21T02:35:22;24.50;99.90
14008;DHT22;61651;45.508;12.232;2022-08-21T02:38:28;24.50;99.90
14008;DHT22;61651;45.508;12.232;2022-08-21T02:41:31;24.50;99.90
14008;DHT22;61651;45.508;12.232;2022-08-21T02:44:33;24.40;99.90
14008;DHT22;61651;45.508;12.232;2022-08-21T02:47:35;24.40;99.90
14008;DHT22;61651;45.508;12.232;2022-08-21T02:50:40;24.40;99.90
14008;DHT22;61651;45.508;12.232;2022-08-21T02:53:44;24.40;99.90
14008;DHT22;61651;45.508;12.232;2022-08-21T02:56:46;24.40;99.90
14008;DHT22;61651;45.508;12.232;2022-08-21T02:59:48;24.30;99.90
14008;DHT22;61651;45.508;12.232;2022-08-21T03:02:51;24.40;99.90
14008;DHT22;61651;45.508;12.232;2022-08-21T03:05:53;24.30;99.90
14008;DHT22;61651;45.508;12.232;2022-08-21T03:08:57;24.30;99.90
14008;DHT22;61651;45.508;12.232;2022-08-21T03:11:59;24.30;99.90
14008;DHT22;61651;45.508;12.232;2022-08-21T03:15:01;24.20;99.90
14008;DHT22;61651;45.508;12.232;2022-08-21T03:18:04;24.20;99.90
14008;DHT22;61651;45.508;12.232;2022-08-21T03:21:07;24.20;99.90
14008;DHT22;61651;45.508;12.232;2022-08-21T03:24:10;24.20;99.90
14008;DHT22;61651;45.508;12.232;2022-08-21T03:27:12;24.20;99.90
14008;DHT22;61651;45.508;12.232;2022-08-21T03:30:16;24.20;99.90
14008;DHT22;61651;45.508;12.232;2022-08-21T03:33:19;24.20;99.90
14008;DHT22;61651;45.508;12.232;2022-08-21T03:36:21;24.20;99.90
14008;DHT22;61651;45.508;12.232;2022-08-21T03:39:25;24.10;99.90
14008;DHT22;61651;45.508;12.232;2022-08-21T03:42:27;24.10;99.90
14008;DHT22;61651;45.508;12.232;2022-08-21T03:45:29;24.10;99.90
14008;DHT22;61651;45.508;12.232;2022-08-21T03:48:31;24.10;99.90
14008;DHT22;61651;45.508;12.232;2022-08-21T03:51:34;24.10;99.90
14008;DHT22;61651;45.508;12.232;2022-08-21T03:54:37;24.00;99.90
14008;DHT22;61651;45.508;12.232;2022-08-21T03:57:41;24.00;99.90
14008;DHT22;61651;45.508;12.232;2022-08-21T04:00:43;23.90;99.90
14008;DHT22;61651;45.508;12.232;2022-08-21T04:03:45;23.90;99.90
14008;DHT22;61651;45.508;12.232;2022-08-21T04:06:47;23.90;99.90
14008;DHT22;61651;45.508;12.232;2022-08-21T04:09:51;23.90;99.90
14008;DHT22;61651;45.508;12.232;2022-08-21T04:12:54;23.90;99.90
14008;DHT22;61651;45.508;12.232;2022-08-21T04:15:56;23.80;99.90
14008;DHT22;61651;45.508;12.232;2022-08-21T04:18:59;23.80;99.90
14008;DHT22;61651;45.508;12.232;2022-08-21T04:22:01;23.80;99.90
14008;DHT22;61651;45.508;12.232;2022-08-21T04:25:05;23.70;99.90
14008;DHT22;61651;45.508;12.232;2022-08-21T04:28:07;23.70;99.90
14008;DHT22;61651;45.508;12.232;2022-08-21T04:31:09;23.80;99.90
14008;DHT22;61651;45.508;12.232;2022-08-21T04:34:11;23.80;99.90
14008;DHT22;61651;45.508;12.232;2022-08-21T04:37:14;23.80;99.90
14008;DHT22;61651;45.508;12.232;2022-08-21T04:40:19;23.80;99.90
14008;DHT22;61651;45.508;12.232;2022-08-21T04:43:23;23.80;99.90
14008;DHT22;61651;45.508;12.232;2022-08-21T04:46:25;23.80;99.90
14008;DHT22;61651;45.508;12.232;2022-08-21T04:49:27;23.90;99.90
14008;DHT22;61651;45.508;12.232;2022-08-21T04:52:29;23.90;99.90
14008;DHT22;61651;45.508;12.232;2022-08-21T04:55:32;23.90;99.90
14008;DHT22;61651;45.508;12.232;2022-08-21T04:58:35;23.90;99.90
14008;DHT22;61651;45.508;12.232;2022-08-21T05:01:39;23.90;99.90
14008;DHT22;61651;45.508;12.232;2022-08-21T05:04:46;23.90;99.90
14008;DHT22;61651;45.508;12.232;2022-08-21T05:07:49;23.90;99.90
14008;DHT22;61651;45.508;12.232;2022-08-21T05:10:54;23.80;99.90
14008;DHT22;61651;45.508;12.232;2022-08-21T05:13:56;23.80;99.90
14008;DHT22;61651;45.508;12.232;2022-08-21T05:16:58;23.80;99.90
14008;DHT22;61651;45.508;12.232;2022-08-21T05:20:00;23.90;99.90
14008;DHT22;61651;45.508;12.232;2022-08-21T05:23:07;23.90;99.90
14008;DHT22;61651;45.508;12.232;2022-08-21T05:26:11;23.80;99.90
14008;DHT22;61651;45.508;12.232;2022-08-21T05:29:14;23.70;99.90
14008;DHT22;61651;45.508;12.232;2022-08-21T05:32:16;23.90;99.90
14008;DHT22;61651;45.508;12.232;2022-08-21T05:35:18;23.90;99.90
14008;DHT22;61651;45.508;12.232;2022-08-21T05:38:20;24.00;99.90
14008;DHT22;61651;45.508;12.232;2022-08-21T05:41:24;24.10;99.90
14008;DHT22;61651;45.508;12.232;2022-08-21T05:44:26;24.20;99.90
14008;DHT22;61651;45.508;12.232;2022-08-21T05:47:28;24.20;99.90
14008;DHT22;61651;45.508;12.232;2022-08-21T05:50:30;24.20;99.90
14008;DHT22;61651;45.508;12.232;2022-08-21T05:53:32;24.20;99.90
14008;DHT22;61651;45.508;12.232;2022-08-21T05:56:35;24.30;99.90
14008;DHT22;61651;45.508;12.232;2022-08-21T05:59:37;24.30;99.90
14008;DHT22;61651;45.508;12.232;2022-08-21T06:02:39;24.40;99.90
14008;DHT22;61651;45.508;12.232;2022-08-21T06:05:42;24.60;99.90
14008;DHT22;61651;45.508;12.232;2022-08-21T06:08:44;24.60;99.90
14008;DHT22;61651;45.508;12.232;2022-08-21T06:11:47;24.70;99.90
14008;DHT22;61651;45.508;12.232;2022-08-21T06:14:49;24.70;99.90
14008;DHT22;61651;45.508;12.232;2022-08-21T06:17:52;24.80;99.90
14008;DHT22;61651;45.508;12.232;2022-08-21T06:20:54;24.90;99.90
14008;DHT22;61651;45.508;12.232;2022-08-21T06:23:56;25.00;99.90
14008;DHT22;61651;45.508;12.232;2022-08-21T06:27:04;25.10;99.90
14008;DHT22;61651;45.508;12.232;2022-08-21T06:30:07;25.10;99.90
14008;DHT22;61651;45.508;12.232;2022-08-21T06:33:09;25.20;99.90
14008;DHT22;61651;45.508;12.232;2022-08-21T06:36:11;25.30;99.90
14008;DHT22;61651;45.508;12.232;2022-08-21T06:39:13;25.30;99.90
14008;DHT22;61651;45.508;12.232;2022-08-21T06:42:17;25.40;99.90
14008;DHT22;61651;45.508;12.232;2022-08-21T06:45:19;25.50;99.90
14008;DHT22;61651;45.508;12.232;2022-08-21T06:48:22;25.60;99.90
14008;DHT22;61651;45.508;12.232;2022-08-21T06:51:25;25.60;99.90
14008;DHT22;61651;45.508;12.232;2022-08-21T06:54:29;25.70;99.90
14008;DHT22;61651;45.508;12.232;2022-08-21T06:57:33;25.80;99.90
14008;DHT22;61651;45.508;12.232;2022-08-21T07:00:38;25.80;99.90
14008;DHT22;61651;45.508;12.232;2022-08-21T07:03:42;25.90;99.90
14008;DHT22;61651;45.508;12.232;2022-08-21T07:06:44;25.90;99.90
14008;DHT22;61651;45.508;12.232;2022-08-21T07:09:46;25.90;99.90
14008;DHT22;61651;45.508;12.232;2022-08-21T07:12:50;26.00;99.90
14008;DHT22;61651;45.508;12.232;2022-08-21T07:15:53;26.10;99.90
14008;DHT22;61651;45.508;12.232;2022-08-21T07:18:55;26.10;99.90
14008;DHT22;61651;45.508;12.232;2022-08-21T07:21:59;26.10;99.90
14008;DHT22;61651;45.508;12.232;2022-08-21T07:25:01;26.20;99.90
14008;DHT22;61651;45.508;12.232;2022-08-21T07:28:05;26.30;99.90
14008;DHT22;61651;45.508;12.232;2022-08-21T07:31:09;26.40;99.90
14008;DHT22;61651;45.508;12.232;2022-08-21T07:34:14;26.40;99.90
14008;DHT22;61651;45.508;12.232;2022-08-21T07:37:16;26.50;99.90
14008;DHT22;61651;45.508;12.232;2022-08-21T07:40:18;26.50;99.90
14008;DHT22;61651;45.508;12.232;2022-08-21T07:43:22;26.50;99.90
14008;DHT22;61651;45.508;12.232;2022-08-21T07:46:24;26.60;99.90
14008;DHT22;61651;45.508;12.232;2022-08-21T07:49:26;26.60;99.90
14008;DHT22;61651;45.508;12.232;2022-08-21T07:52:29;26.80;99.90
14008;DHT22;61651;45.508;12.232;2022-08-21T07:55:31;26.90;99.90
14008;DHT22;61651;45.508;12.232;2022-08-21T07:58:34;27.00;99.90
14008;DHT22;61651;45.508;12.232;2022-08-21T08:01:36;27.10;99.90
14008;DHT22;61651;45.508;12.232;2022-08-21T08:04:38;27.10;99.90
14008;DHT22;61651;45.508;12.232;2022-08-21T08:07:40;27.30;99.90
14008;DHT22;61651;45.508;12.232;2022-08-21T08:10:42;27.30;99.90
14008;DHT22;61651;45.508;12.232;2022-08-21T08:13:48;27.30;99.90
14008;DHT22;61651;45.508;12.232;2022-08-21T08:16:51;27.20;99.90
14008;DHT22;61651;45.508;12.232;2022-08-21T08:19:53;27.20;99.90
14008;DHT22;61651;45.508;12.232;2022-08-21T08:22:56;27.10;99.90
14008;DHT22;61651;45.508;12.232;2022-08-21T08:25:58;27.10;99.90
14008;DHT22;61651;45.508;12.232;2022-08-21T08:29:01;27.20;99.90
14008;DHT22;61651;45.508;12.232;2022-08-21T08:32:04;27.30;99.90
14008;DHT22;61651;45.508;12.232;2022-08-21T08:35:08;27.50;99.90
14008;DHT22;61651;45.508;12.232;2022-08-21T08:38:11;27.70;99.90
14008;DHT22;61651;45.508;12.232;2022-08-21T08:41:19;27.80;99.90
14008;DHT22;61651;45.508;12.232;2022-08-21T08:44:24;27.90;99.90
14008;DHT22;61651;45.508;12.232;2022-08-21T08:47:27;28.00;99.90
14008;DHT22;61651;45.508;12.232;2022-08-21T08:50:39;28.00;99.90
14008;DHT22;61651;45.508;12.232;2022-08-21T08:53:48;27.90;99.90
14008;DHT22;61651;45.508;12.232;2022-08-21T08:56:51;27.90;99.90
14008;DHT22;61651;45.508;12.232;2022-08-21T09:00:00;28.10;99.90
14008;DHT22;61651;45.508;12.232;2022-08-21T09:03:03;28.20;99.90
14008;DHT22;61651;45.508;12.232;2022-08-21T09:06:13;28.40;99.90
14008;DHT22;61651;45.508;12.232;2022-08-21T09:09:28;28.40;99.90
14008;DHT22;61651;45.508;12.232;2022-08-21T09:12:42;28.40;99.90
14008;DHT22;61651;45.508;12.232;2022-08-21T09:15:55;28.60;99.90
14008;DHT22;61651;45.508;12.232;2022-08-21T09:19:04;28.80;99.90
14008;DHT22;61651;45.508;12.232;2022-08-21T09:22:17;29.00;99.90
14008;DHT22;61651;45.508;12.232;2022-08-21T09:25:24;28.80;99.90
14008;DHT22;61651;45.508;12.232;2022-08-21T09:28:27;28.90;99.90
14008;DHT22;61651;45.508;12.232;2022-08-21T09:31:36;28.90;99.90
14008;DHT22;61651;45.508;12.232;2022-08-21T09:34:39;29.10;99.90
14008;DHT22;61651;45.508;12.232;2022-08-21T09:37:51;29.20;99.90
14008;DHT22;61651;45.508;12.232;2022-08-21T09:40:58;29.20;99.90
14008;DHT22;61651;45.508;12.232;2022-08-21T09:44:02;29.30;99.90
14008;DHT22;61651;45.508;12.232;2022-08-21T09:47:06;29.50;99.90
14008;DHT22;61651;45.508;12.232;2022-08-21T09:50:11;29.60;99.90
14008;DHT22;61651;45.508;12.232;2022-08-21T09:53:17;29.70;99.90
14008;DHT22;61651;45.508;12.232;2022-08-21T09:56:26;29.70;99.90
14008;DHT22;61651;45.508;12.232;2022-08-21T09:59:46;29.90;99.90
14008;DHT22;61651;45.508;12.232;2022-08-21T10:02:50;30.00;99.90
14008;DHT22;61651;45.508;12.232;2022-08-21T10:05:56;30.10;99.90
14008;DHT22;61651;45.508;12.232;2022-08-21T10:09:06;30.30;99.90
14008;DHT22;61651;45.508;12.232;2022-08-21T10:12:13;30.30;99.90
14008;DHT22;61651;45.508;12.232;2022-08-21T10:15:22;30.30;99.90
14008;DHT22;61651;45.508;12.232;2022-08-21T10:18:30;30.60;99.90
14008;DHT22;61651;45.508;12.232;2022-08-21T10:21:40;30.80;99.90
14008;DHT22;61651;45.508;12.232;2022-08-21T10:24:51;30.90;99.90
14008;DHT22;61651;45.508;12.232;2022-08-21T10:28:01;30.90;99.90
14008;DHT22;61651;45.508;12.232;2022-08-21T10:31:12;31.00;99.90
14008;DHT22;61651;45.508;12.232;2022-08-21T10:34:27;31.10;99.90
14008;DHT22;61651;45.508;12.232;2022-08-21T10:37:42;31.10;99.90
14008;DHT22;61651;45.508;12.232;2022-08-21T10:40:52;31.00;99.90
14008;DHT22;61651;45.508;12.232;2022-08-21T10:44:04;31.00;99.90
14008;DHT22;61651;45.508;12.232;2022-08-21T10:47:15;31.10;99.90
14008;DHT22;61651;45.508;12.232;2022-08-21T10:50:29;31.20;99.90
14008;DHT22;61651;45.508;12.232;2022-08-21T10:53:40;31.30;99.90
14008;DHT22;61651;45.508;12.232;2022-08-21T10:56:43;31.40;99.90
14008;DHT22;61651;45.508;12.232;2022-08-21T10:59:54;31.40;99.90
14008;DHT22;61651;45.508;12.232;2022-08-21T11:03:03;31.50;99.90
14008;DHT22;61651;45.508;12.232;2022-08-21T11:06:12;31.60;99.90
14008;DHT22;61651;45.508;12.232;2022-08-21T11:09:18;31.80;99.90
14008;DHT22;61651;45.508;12.232;2022-08-21T11:12:29;32.00;99.90
14008;DHT22;61651;45.508;12.232;2022-08-21T11:15:41;32.20;99.90
14008;DHT22;61651;45.508;12.232;2022-08-21T11:18:50;32.10;99.90
14008;DHT22;61651;45.508;12.232;2022-08-21T11:21:58;32.20;99.90
14008;DHT22;61651;45.508;12.232;2022-08-21T11:25:06;32.30;99.90
14008;DHT22;61651;45.508;12.232;2022-08-21T11:28:13;32.50;99.90
14008;DHT22;61651;45.508;12.232;2022-08-21T11:31:30;32.40;99.90
14008;DHT22;61651;45.508;12.232;2022-08-21T11:34:46;32.40;99.90
14008;DHT22;61651;45.508;12.232;2022-08-21T11:37:57;32.60;99.90
14008;DHT22;61651;45.508;12.232;2022-08-21T11:41:17;32.70;99.90
14008;DHT22;61651;45.508;12.232;2022-08-21T11:44:29;32.50;99.90
14008;DHT22;61651;45.508;12.232;2022-08-21T11:47:45;32.60;99.90
14008;DHT22;61651;45.508;12.232;2022-08-21T11:50:51;32.70;99.90
14008;DHT22;61651;45.508;12.232;2022-08-21T11:54:06;32.80;99.90
14008;DHT22;61651;45.508;12.232;2022-08-21T11:57:15;33.00;99.90
14008;DHT22;61651;45.508;12.232;2022-08-21T12:00:22;33.10;99.90
14008;DHT22;61651;45.508;12.232;2022-08-21T12:03:27;33.20;99.90
14008;DHT22;61651;45.508;12.232;2022-08-21T12:06:32;33.30;99.90
14008;DHT22;61651;45.508;12.232;2022-08-21T12:09:36;33.30;99.90
14008;DHT22;61651;45.508;12.232;2022-08-21T12:12:45;33.40;99.90
14008;DHT22;61651;45.508;12.232;2022-08-21T12:15:47;33.60;99.90
14008;DHT22;61651;45.508;12.232;2022-08-21T12:18:49;33.60;99.90
14008;DHT22;61651;45.508;12.232;2022-08-21T12:21:54;33.50;99.90
14008;DHT22;61651;45.508;12.232;2022-08-21T12:25:06;33.50;99.90
14008;DHT22;61651;45.508;12.232;2022-08-21T12:28:10;33.50;99.90
14008;DHT22;61651;45.508;12.232;2022-08-21T12:31:24;33.40;99.90
14008;DHT22;61651;45.508;12.232;2022-08-21T12:34:33;33.50;99.90
14008;DHT22;61651;45.508;12.232;2022-08-21T12:37:39;33.80;99.90
14008;DHT22;61651;45.508;12.232;2022-08-21T12:40:47;34.00;99.90
14008;DHT22;61651;45.508;12.232;2022-08-21T12:43:55;33.70;99.90
14008;DHT22;61651;45.508;12.232;2022-08-21T12:47:02;33.80;99.90
14008;DHT22;61651;45.508;12.232;2022-08-21T12:50:08;34.00;99.90
14008;DHT22;61651;45.508;12.232;2022-08-21T12:53:17;33.70;99.90
14008;DHT22;61651;45.508;12.232;2022-08-21T12:56:26;33.90;99.90
14008;DHT22;61651;45.508;12.232;2022-08-21T12:59:29;34.30;99.90
14008;DHT22;61651;45.508;12.232;2022-08-21T13:02:33;34.50;99.90
14008;DHT22;61651;45.508;12.232;2022-08-21T13:05:36;34.70;99.90
14008;DHT22;61651;45.508;12.232;2022-08-21T13:08:39;34.10;99.90
14008;DHT22;61651;45.508;12.232;2022-08-21T13:11:44;34.30;99.90
14008;DHT22;61651;45.508;12.232;2022-08-21T13:14:48;34.50;99.90
14008;DHT22;61651;45.508;12.232;2022-08-21T13:17:51;34.60;99.60
14008;DHT22;61651;45.508;12.232;2022-08-21T13:21:05;34.80;99.50
14008;DHT22;61651;45.508;12.232;2022-08-21T13:24:12;35.10;99.10
14008;DHT22;61651;45.508;12.232;2022-08-21T13:27:26;35.40;98.20
14008;DHT22;61651;45.508;12.232;2022-08-21T13:30:28;35.60;97.70
14008;DHT22;61651;45.508;12.232;2022-08-21T13:33:31;35.70;96.70
14008;DHT22;61651;45.508;12.232;2022-08-21T13:36:39;35.80;97.90
14008;DHT22;61651;45.508;12.232;2022-08-21T13:39:49;36.00;97.50
14008;DHT22;61651;45.508;12.232;2022-08-21T13:42:52;36.30;98.00
14008;DHT22;61651;45.508;12.232;2022-08-21T13:45:56;36.50;96.30
14008;DHT22;61651;45.508;12.232;2022-08-21T13:48:59;36.90;97.00
14008;DHT22;61651;45.508;12.232;2022-08-21T13:52:03;37.30;94.40
14008;DHT22;61651;45.508;12.232;2022-08-21T13:55:11;37.50;95.30
14008;DHT22;61651;45.508;12.232;2022-08-21T13:58:25;37.60;95.40
14008;DHT22;61651;45.508;12.232;2022-08-21T14:01:30;37.20;95.30
14008;DHT22;61651;45.508;12.232;2022-08-21T14:04:35;37.10;95.50
14008;DHT22;61651;45.508;12.232;2022-08-21T14:07:40;37.10;95.50
14008;DHT22;61651;45.508;12.232;2022-08-21T14:10:45;37.30;94.80
14008;DHT22;61651;45.508;12.232;2022-08-21T14:13:56;36.20;95.70
14008;DHT22;61651;45.508;12.232;2022-08-21T14:17:01;36.90;96.30
14008;DHT22;61651;45.508;12.232;2022-08-21T14:20:06;36.90;94.30
14008;DHT22;61651;45.508;12.232;2022-08-21T14:23:08;37.20;95.00
14008;DHT22;61651;45.508;12.232;2022-08-21T14:26:10;37.10;94.80
14008;DHT22;61651;45.508;12.232;2022-08-21T14:29:16;37.40;94.00
14008;DHT22;61651;45.508;12.232;2022-08-21T14:32:20;37.40;93.50
14008;DHT22;61651;45.508;12.232;2022-08-21T14:35:24;37.40;93.40
14008;DHT22;61651;45.508;12.232;2022-08-21T14:38:27;37.50;90.40
14008;DHT22;61651;45.508;12.232;2022-08-21T14:41:29;37.90;92.90
14008;DHT22;61651;45.508;12.232;2022-08-21T14:44:33;38.10;92.60
14008;DHT22;61651;45.508;12.232;2022-08-21T14:47:35;38.20;92.30
14008;DHT22;61651;45.508;12.232;2022-08-21T14:50:38;38.50;92.50
14008;DHT22;61651;45.508;12.232;2022-08-21T14:53:40;38.70;92.40
14008;DHT22;61651;45.508;12.232;2022-08-21T14:56:42;38.70;91.70
14008;DHT22;61651;45.508;12.232;2022-08-21T14:59:45;38.70;91.60
14008;DHT22;61651;45.508;12.232;2022-08-21T15:02:47;38.90;92.10
14008;DHT22;61651;45.508;12.232;2022-08-21T15:05:50;38.90;90.90
14008;DHT22;61651;45.508;12.232;2022-08-21T15:08:52;38.90;91.70
14008;DHT22;61651;45.508;12.232;2022-08-21T15:11:56;39.00;91.30
14008;DHT22;61651;45.508;12.232;2022-08-21T15:15:01;39.10;91.00
14008;DHT22;61651;45.508;12.232;2022-08-21T15:18:03;39.10;90.70
14008;DHT22;61651;45.508;12.232;2022-08-21T15:21:05;39.00;91.20
14008;DHT22;61651;45.508;12.232;2022-08-21T15:24:07;38.90;91.70
14008;DHT22;61651;45.508;12.232;2022-08-21T15:27:10;38.80;91.60
14008;DHT22;61651;45.508;12.232;2022-08-21T15:30:14;38.80;91.40
14008;DHT22;61651;45.508;12.232;2022-08-21T15:33:16;38.80;90.70
14008;DHT22;61651;45.508;12.232;2022-08-21T15:36:18;38.90;89.90
14008;DHT22;61651;45.508;12.232;2022-08-21T15:39:20;38.80;90.10
14008;DHT22;61651;45.508;12.232;2022-08-21T15:42:23;38.70;90.60
14008;DHT22;61651;45.508;12.232;2022-08-21T15:45:29;38.60;91.30
14008;DHT22;61651;45.508;12.232;2022-08-21T15:48:31;38.60;90.30
14008;DHT22;61651;45.508;12.232;2022-08-21T15:51:33;38.60;90.10
14008;DHT22;61651;45.508;12.232;2022-08-21T15:54:35;38.40;90.00
14008;DHT22;61651;45.508;12.232;2022-08-21T15:57:42;38.20;90.70
14008;DHT22;61651;45.508;12.232;2022-08-21T16:00:45;38.00;91.30
14008;DHT22;61651;45.508;12.232;2022-08-21T16:03:49;37.90;91.00
14008;DHT22;61651;45.508;12.232;2022-08-21T16:06:52;37.50;91.90
14008;DHT22;61651;45.508;12.232;2022-08-21T16:09:54;37.20;91.90
14008;DHT22;61651;45.508;12.232;2022-08-21T16:13:04;36.90;91.70
14008;DHT22;61651;45.508;12.232;2022-08-21T16:16:09;36.70;92.10
14008;DHT22;61651;45.508;12.232;2022-08-21T16:19:13;36.30;92.70
14008;DHT22;61651;45.508;12.232;2022-08-21T16:22:15;36.00;92.50
14008;DHT22;61651;45.508;12.232;2022-08-21T16:25:17;35.50;92.80
14008;DHT22;61651;45.508;12.232;2022-08-21T16:28:20;35.10;93.40
14008;DHT22;61651;45.508;12.232;2022-08-21T16:31:25;34.90;93.70
14008;DHT22;61651;45.508;12.232;2022-08-21T16:34:28;34.60;93.80
14008;DHT22;61651;45.508;12.232;2022-08-21T16:37:30;34.20;93.70
14008;DHT22;61651;45.508;12.232;2022-08-21T16:40:32;34.10;94.10
14008;DHT22;61651;45.508;12.232;2022-08-21T16:43:34;33.70;95.50
14008;DHT22;61651;45.508;12.232;2022-08-21T16:46:39;33.40;95.50
14008;DHT22;61651;45.508;12.232;2022-08-21T16:49:42;33.30;96.30
14008;DHT22;61651;45.508;12.232;2022-08-21T16:52:46;33.00;96.70
14008;DHT22;61651;45.508;12.232;2022-08-21T16:55:49;32.80;97.10
14008;DHT22;61651;45.508;12.232;2022-08-21T16:58:53;32.70;97.30
14008;DHT22;61651;45.508;12.232;2022-08-21T17:01:56;32.60;97.80
14008;DHT22;61651;45.508;12.232;2022-08-21T17:04:58;32.50;97.70
14008;DHT22;61651;45.508;12.232;2022-08-21T17:08:02;32.30;97.90
14008;DHT22;61651;45.508;12.232;2022-08-21T17:11:05;32.20;97.90
14008;DHT22;61651;45.508;12.232;2022-08-21T17:14:10;32.00;98.20
14008;DHT22;61651;45.508;12.232;2022-08-21T17:17:14;32.00;98.40
14008;DHT22;61651;45.508;12.232;2022-08-21T17:20:17;31.90;98.80
14008;DHT22;61651;45.508;12.232;2022-08-21T17:23:19;31.70;98.80
14008;DHT22;61651;45.508;12.232;2022-08-21T17:26:22;31.60;98.80
14008;DHT22;61651;45.508;12.232;2022-08-21T17:29:27;31.60;99.10
14008;DHT22;61651;45.508;12.232;2022-08-21T17:32:31;31.60;99.40
14008;DHT22;61651;45.508;12.232;2022-08-21T17:35:33;31.40;99.40
14008;DHT22;61651;45.508;12.232;2022-08-21T17:38:35;31.40;99.50
14008;DHT22;61651;45.508;12.232;2022-08-21T17:41:39;31.40;99.80
14008;DHT22;61651;45.508;12.232;2022-08-21T17:44:43;31.30;99.90
14008;DHT22;61651;45.508;12.232;2022-08-21T17:47:47;31.20;99.90
14008;DHT22;61651;45.508;12.232;2022-08-21T17:50:49;31.20;99.90
14008;DHT22;61651;45.508;12.232;2022-08-21T17:53:51;31.10;99.90
14008;DHT22;61651;45.508;12.232;2022-08-21T17:56:53;31.00;99.90
14008;DHT22;61651;45.508;12.232;2022-08-21T17:59:56;30.90;99.90
14008;DHT22;61651;45.508;12.232;2022-08-21T18:03:02;30.90;99.90
14008;DHT22;61651;45.508;12.232;2022-08-21T18:06:05;30.90;99.90
14008;DHT22;61651;45.508;12.232;2022-08-21T18:09:08;30.80;99.90
14008;DHT22;61651;45.508;12.232;2022-08-21T18:12:10;30.80;99.90
14008;DHT22;61651;45.508;12.232;2022-08-21T18:15:15;30.70;99.90
14008;DHT22;61651;45.508;12.232;2022-08-21T18:18:19;30.70;99.90
14008;DHT22;61651;45.508;12.232;2022-08-21T18:21:22;30.60;99.90
14008;DHT22;61651;45.508;12.232;2022-08-21T18:24:24;30.60;99.90
14008;DHT22;61651;45.508;12.232;2022-08-21T18:27:26;30.50;99.90
14008;DHT22;61651;45.508;12.232;2022-08-21T18:30:28;30.50;99.90
14008;DHT22;61651;45.508;12.232;2022-08-21T18:33:32;30.40;99.90
14008;DHT22;61651;45.508;12.232;2022-08-21T18:36:34;30.40;99.90
14008;DHT22;61651;45.508;12.232;2022-08-21T18:39:37;30.30;99.90
14008;DHT22;61651;45.508;12.232;2022-08-21T18:42:41;30.30;99.90
14008;DHT22;61651;45.508;12.232;2022-08-21T18:45:43;30.20;99.90
14008;DHT22;61651;45.508;12.232;2022-08-21T18:48:46;30.20;99.90
14008;DHT22;61651;45.508;12.232;2022-08-21T18:51:48;30.10;99.90
14008;DHT22;61651;45.508;12.232;2022-08-21T18:54:50;30.00;99.90
14008;DHT22;61651;45.508;12.232;2022-08-21T18:57:53;30.00;99.90
14008;DHT22;61651;45.508;12.232;2022-08-21T19:00:56;29.90;99.90
14008;DHT22;61651;45.508;12.232;2022-08-21T19:03:59;29.90;99.90
14008;DHT22;61651;45.508;12.232;2022-08-21T19:07:02;29.90;99.90